sensor_id;sensor_type;location;lat;lon;timestamp;P1;durP1;ratioP1;P2;durP2;ratioP2
10509;SDS011;5303;53.266;10.410;2023-05-01T00:02:12;13.23;;;7.43;;
10509;SDS011;5303;53.266;10.410;2023-05-01T00:04:37;10.87;;;7.87;;
10509;SDS011;5303;53.266;10.410;2023-05-01T00:07:02;10.57;;;7.67;;
10509;SDS011;5303;53.266;10.410;2023-05-01T00:09:28;12.40;;;8.00;;
10509;SDS011;5303;53.266;10.410;2023-05-01T00:11:53;13.03;;;7.23;;
10509;SDS011;5303;53.266;10.410;2023-05-01T00:14:18;8.67;;;6.93;;
10509;SDS011;5303;53.266;10.410;2023-05-01T00:16:43;10.23;;;7.23;;
10509;SDS011;5303;53.266;10.410;2023-05-01T00:19:10;10.33;;;6.83;;
10509;SDS011;5303;53.266;10.410;2023-05-01T00:21:36;12.93;;;8.20;;
10509;SDS011;5303;53.266;10.410;2023-05-01T00:24:01;11.43;;;7.07;;
10509;SDS011;5303;53.266;10.410;2023-05-01T00:26:27;12.77;;;7.30;;
10509;SDS011;5303;53.266;10.410;2023-05-01T00:28:55;12.03;;;7.40;;
10509;SDS011;5303;53.266;10.410;2023-05-01T00:31:20;10.10;;;6.83;;
10509;SDS011;5303;53.266;10.410;2023-05-01T00:33:48;7.73;;;6.53;;
10509;SDS011;5303;53.266;10.410;2023-05-01T00:36:13;10.17;;;6.97;;
10509;SDS011;5303;53.266;10.410;2023-05-01T00:38:38;9.43;;;6.40;;
10509;SDS011;5303;53.266;10.410;2023-05-01T00:41:04;8.97;;;6.40;;
10509;SDS011;5303;53.266;10.410;2023-05-01T00:43:29;9.47;;;6.47;;
10509;SDS011;5303;53.266;10.410;2023-05-01T00:45:54;9.87;;;6.10;;
10509;SDS011;5303;53.266;10.410;2023-05-01T00:48:20;8.30;;;5.70;;
10509;SDS011;5303;53.266;10.410;2023-05-01T00:50:45;9.33;;;5.77;;
10509;SDS011;5303;53.266;10.410;2023-05-01T00:53:12;8.47;;;5.80;;
10509;SDS011;5303;53.266;10.410;2023-05-01T00:55:38;8.93;;;5.87;;
10509;SDS011;5303;53.266;10.410;2023-05-01T00:58:06;11.97;;;5.80;;
10509;SDS011;5303;53.266;10.410;2023-05-01T01:00:31;5.77;;;5.17;;
10509;SDS011;5303;53.266;10.410;2023-05-01T01:02:57;12.63;;;5.73;;
10509;SDS011;5303;53.266;10.410;2023-05-01T01:05:23;11.67;;;5.77;;
10509;SDS011;5303;53.266;10.410;2023-05-01T01:08:02;8.70;;;5.50;;
10509;SDS011;5303;53.266;10.410;2023-05-01T01:11:09;9.53;;;5.47;;
10509;SDS011;5303;53.266;10.410;2023-05-01T01:13:45;12.20;;;6.03;;
10509;SDS011;5303;53.266;10.410;2023-05-01T01:16:18;9.03;;;5.70;;
10509;SDS011;5303;53.266;10.410;2023-05-01T01:18:55;6.73;;;6.03;;
10509;SDS011;5303;53.266;10.410;2023-05-01T01:21:37;8.30;;;5.60;;
10509;SDS011;5303;53.266;10.410;2023-05-01T01:24:24;9.93;;;5.73;;
10509;SDS011;5303;53.266;10.410;2023-05-01T01:27:08;7.90;;;5.80;;
10509;SDS011;5303;53.266;10.410;2023-05-01T01:35:19;9.23;;;5.73;;
10509;SDS011;5303;53.266;10.410;2023-05-01T01:37:56;7.17;;;5.00;;
10509;SDS011;5303;53.266;10.410;2023-05-01T01:43:32;9.20;;;5.40;;
10509;SDS011;5303;53.266;10.410;2023-05-01T01:46:04;8.10;;;5.40;;
10509;SDS011;5303;53.266;10.410;2023-05-01T01:48:32;11.80;;;5.30;;
10509;SDS011;5303;53.266;10.410;2023-05-01T01:51:00;8.67;;;5.07;;
10509;SDS011;5303;53.266;10.410;2023-05-01T01:53:32;7.27;;;5.00;;
10509;SDS011;5303;53.266;10.410;2023-05-01T01:55:59;8.33;;;4.90;;
10509;SDS011;5303;53.266;10.410;2023-05-01T01:58:27;9.50;;;5.40;;
10509;SDS011;5303;53.266;10.410;2023-05-01T02:00:54;9.30;;;5.40;;
10509;SDS011;5303;53.266;10.410;2023-05-01T02:03:21;7.90;;;4.47;;
10509;SDS011;5303;53.266;10.410;2023-05-01T02:05:48;11.60;;;5.30;;
10509;SDS011;5303;53.266;10.410;2023-05-01T02:08:15;9.27;;;4.80;;
10509;SDS011;5303;53.266;10.410;2023-05-01T02:10:42;8.93;;;5.57;;
10509;SDS011;5303;53.266;10.410;2023-05-01T02:13:09;7.90;;;5.00;;
10509;SDS011;5303;53.266;10.410;2023-05-01T02:15:36;8.07;;;5.37;;
10509;SDS011;5303;53.266;10.410;2023-05-01T02:18:02;8.33;;;5.17;;
10509;SDS011;5303;53.266;10.410;2023-05-01T02:20:29;10.60;;;5.03;;
10509;SDS011;5303;53.266;10.410;2023-05-01T02:22:54;5.63;;;4.57;;
10509;SDS011;5303;53.266;10.410;2023-05-01T02:25:22;9.20;;;4.73;;
10509;SDS011;5303;53.266;10.410;2023-05-01T02:27:55;7.97;;;4.77;;
10509;SDS011;5303;53.266;10.410;2023-05-01T02:30:24;6.87;;;4.73;;
10509;SDS011;5303;53.266;10.410;2023-05-01T02:32:49;5.90;;;5.10;;
10509;SDS011;5303;53.266;10.410;2023-05-01T02:35:15;7.63;;;4.70;;
10509;SDS011;5303;53.266;10.410;2023-05-01T02:37:41;8.90;;;4.93;;
10509;SDS011;5303;53.266;10.410;2023-05-01T02:40:07;7.07;;;4.70;;
10509;SDS011;5303;53.266;10.410;2023-05-01T02:42:35;7.20;;;4.10;;
10509;SDS011;5303;53.266;10.410;2023-05-01T02:45:02;6.87;;;5.27;;
10509;SDS011;5303;53.266;10.410;2023-05-01T02:47:32;9.63;;;5.17;;
10509;SDS011;5303;53.266;10.410;2023-05-01T02:50:03;7.33;;;4.77;;
10509;SDS011;5303;53.266;10.410;2023-05-01T02:52:30;8.63;;;4.70;;
10509;SDS011;5303;53.266;10.410;2023-05-01T02:54:56;6.57;;;4.47;;
10509;SDS011;5303;53.266;10.410;2023-05-01T02:57:22;5.70;;;4.30;;
10509;SDS011;5303;53.266;10.410;2023-05-01T02:59:47;7.40;;;4.37;;
10509;SDS011;5303;53.266;10.410;2023-05-01T03:02:12;7.30;;;4.77;;
10509;SDS011;5303;53.266;10.410;2023-05-01T03:04:39;6.37;;;4.40;;
10509;SDS011;5303;53.266;10.410;2023-05-01T03:07:05;7.73;;;4.70;;
10509;SDS011;5303;53.266;10.410;2023-05-01T03:09:31;6.70;;;4.40;;
10509;SDS011;5303;53.266;10.410;2023-05-01T03:11:56;6.17;;;4.33;;
10509;SDS011;5303;53.266;10.410;2023-05-01T03:14:21;6.23;;;4.20;;
10509;SDS011;5303;53.266;10.410;2023-05-01T03:16:47;8.03;;;4.87;;
10509;SDS011;5303;53.266;10.410;2023-05-01T03:19:13;6.80;;;4.53;;
10509;SDS011;5303;53.266;10.410;2023-05-01T03:21:38;6.07;;;4.47;;
10509;SDS011;5303;53.266;10.410;2023-05-01T03:24:03;9.43;;;4.83;;
10509;SDS011;5303;53.266;10.410;2023-05-01T03:26:29;7.33;;;4.87;;
10509;SDS011;5303;53.266;10.410;2023-05-01T03:28:54;8.63;;;4.60;;
10509;SDS011;5303;53.266;10.410;2023-05-01T03:31:19;8.30;;;4.70;;
10509;SDS011;5303;53.266;10.410;2023-05-01T03:33:45;9.27;;;5.37;;
10509;SDS011;5303;53.266;10.410;2023-05-01T03:36:11;8.17;;;4.93;;
10509;SDS011;5303;53.266;10.410;2023-05-01T03:38:37;7.57;;;5.00;;
10509;SDS011;5303;53.266;10.410;2023-05-01T03:41:03;8.77;;;4.83;;
10509;SDS011;5303;53.266;10.410;2023-05-01T03:43:29;6.87;;;4.33;;
10509;SDS011;5303;53.266;10.410;2023-05-01T03:45:55;8.70;;;4.83;;
10509;SDS011;5303;53.266;10.410;2023-05-01T03:48:21;7.77;;;4.93;;
10509;SDS011;5303;53.266;10.410;2023-05-01T03:50:46;9.40;;;4.57;;
10509;SDS011;5303;53.266;10.410;2023-05-01T03:53:11;7.30;;;5.17;;
10509;SDS011;5303;53.266;10.410;2023-05-01T03:55:37;5.97;;;4.73;;
10509;SDS011;5303;53.266;10.410;2023-05-01T03:58:04;6.00;;;4.30;;
10509;SDS011;5303;53.266;10.410;2023-05-01T04:00:29;6.97;;;4.57;;
10509;SDS011;5303;53.266;10.410;2023-05-01T04:02:56;7.10;;;5.00;;
10509;SDS011;5303;53.266;10.410;2023-05-01T04:05:21;7.30;;;4.83;;
10509;SDS011;5303;53.266;10.410;2023-05-01T04:07:47;8.13;;;4.50;;
10509;SDS011;5303;53.266;10.410;2023-05-01T04:10:12;9.00;;;4.40;;
10509;SDS011;5303;53.266;10.410;2023-05-01T04:12:37;6.47;;;4.47;;
10509;SDS011;5303;53.266;10.410;2023-05-01T04:15:03;7.40;;;4.57;;
10509;SDS011;5303;53.266;10.410;2023-05-01T04:17:28;6.50;;;4.40;;
10509;SDS011;5303;53.266;10.410;2023-05-01T04:19:54;7.37;;;5.10;;
10509;SDS011;5303;53.266;10.410;2023-05-01T04:22:20;7.47;;;4.70;;
10509;SDS011;5303;53.266;10.410;2023-05-01T04:24:46;9.07;;;5.17;;
10509;SDS011;5303;53.266;10.410;2023-05-01T04:27:11;8.73;;;5.03;;
10509;SDS011;5303;53.266;10.410;2023-05-01T04:29:37;6.57;;;4.73;;
10509;SDS011;5303;53.266;10.410;2023-05-01T04:32:02;7.30;;;4.57;;
10509;SDS011;5303;53.266;10.410;2023-05-01T04:34:28;8.70;;;4.70;;
10509;SDS011;5303;53.266;10.410;2023-05-01T04:36:54;9.17;;;5.20;;
10509;SDS011;5303;53.266;10.410;2023-05-01T04:39:21;8.43;;;4.93;;
10509;SDS011;5303;53.266;10.410;2023-05-01T04:41:46;8.87;;;5.03;;
10509;SDS011;5303;53.266;10.410;2023-05-01T04:44:11;6.97;;;4.80;;
10509;SDS011;5303;53.266;10.410;2023-05-01T04:46:37;7.23;;;4.60;;
10509;SDS011;5303;53.266;10.410;2023-05-01T04:49:02;6.67;;;4.67;;
10509;SDS011;5303;53.266;10.410;2023-05-01T04:51:27;5.67;;;4.83;;
10509;SDS011;5303;53.266;10.410;2023-05-01T04:53:53;9.17;;;4.63;;
10509;SDS011;5303;53.266;10.410;2023-05-01T04:56:19;6.70;;;4.60;;
10509;SDS011;5303;53.266;10.410;2023-05-01T04:58:45;8.73;;;4.80;;
10509;SDS011;5303;53.266;10.410;2023-05-01T05:01:10;6.85;;;5.22;;
10509;SDS011;5303;53.266;10.410;2023-05-01T05:03:36;7.67;;;5.07;;
10509;SDS011;5303;53.266;10.410;2023-05-01T05:06:01;7.83;;;4.93;;
10509;SDS011;5303;53.266;10.410;2023-05-01T05:08:27;6.67;;;4.63;;
10509;SDS011;5303;53.266;10.410;2023-05-01T05:10:56;6.63;;;4.90;;
10509;SDS011;5303;53.266;10.410;2023-05-01T05:13:22;5.47;;;3.83;;
10509;SDS011;5303;53.266;10.410;2023-05-01T05:15:48;8.63;;;4.57;;
10509;SDS011;5303;53.266;10.410;2023-05-01T05:18:13;7.47;;;4.80;;
10509;SDS011;5303;53.266;10.410;2023-05-01T05:20:38;7.73;;;4.57;;
10509;SDS011;5303;53.266;10.410;2023-05-01T05:23:04;11.60;;;5.83;;
10509;SDS011;5303;53.266;10.410;2023-05-01T05:25:29;8.70;;;5.17;;
10509;SDS011;5303;53.266;10.410;2023-05-01T05:27:54;5.80;;;4.17;;
10509;SDS011;5303;53.266;10.410;2023-05-01T05:30:20;7.83;;;4.20;;
10509;SDS011;5303;53.266;10.410;2023-05-01T05:32:45;7.37;;;4.63;;
10509;SDS011;5303;53.266;10.410;2023-05-01T05:35:11;4.90;;;3.93;;
10509;SDS011;5303;53.266;10.410;2023-05-01T05:37:36;4.53;;;3.67;;
10509;SDS011;5303;53.266;10.410;2023-05-01T05:40:02;6.33;;;4.40;;
10509;SDS011;5303;53.266;10.410;2023-05-01T05:42:28;6.30;;;3.83;;
10509;SDS011;5303;53.266;10.410;2023-05-01T05:44:53;6.50;;;4.47;;
10509;SDS011;5303;53.266;10.410;2023-05-01T05:47:18;4.47;;;3.90;;
10509;SDS011;5303;53.266;10.410;2023-05-01T05:49:43;6.80;;;4.43;;
10509;SDS011;5303;53.266;10.410;2023-05-01T05:52:09;6.50;;;4.10;;
10509;SDS011;5303;53.266;10.410;2023-05-01T05:54:34;4.07;;;3.57;;
10509;SDS011;5303;53.266;10.410;2023-05-01T05:56:59;6.90;;;3.70;;
10509;SDS011;5303;53.266;10.410;2023-05-01T05:59:26;8.07;;;4.03;;
10509;SDS011;5303;53.266;10.410;2023-05-01T06:01:51;5.43;;;3.67;;
10509;SDS011;5303;53.266;10.410;2023-05-01T06:04:17;6.43;;;4.07;;
10509;SDS011;5303;53.266;10.410;2023-05-01T06:06:42;9.10;;;4.10;;
10509;SDS011;5303;53.266;10.410;2023-05-01T06:09:07;7.03;;;4.00;;
10509;SDS011;5303;53.266;10.410;2023-05-01T06:11:33;7.57;;;4.10;;
10509;SDS011;5303;53.266;10.410;2023-05-01T06:13:58;8.03;;;4.13;;
10509;SDS011;5303;53.266;10.410;2023-05-01T06:16:24;7.00;;;4.07;;
10509;SDS011;5303;53.266;10.410;2023-05-01T06:18:49;7.20;;;4.23;;
10509;SDS011;5303;53.266;10.410;2023-05-01T06:21:14;5.57;;;4.00;;
10509;SDS011;5303;53.266;10.410;2023-05-01T06:23:40;6.87;;;3.67;;
10509;SDS011;5303;53.266;10.410;2023-05-01T06:26:05;5.97;;;4.10;;
10509;SDS011;5303;53.266;10.410;2023-05-01T06:28:31;6.67;;;4.13;;
10509;SDS011;5303;53.266;10.410;2023-05-01T06:30:57;5.53;;;3.83;;
10509;SDS011;5303;53.266;10.410;2023-05-01T06:33:22;6.63;;;3.67;;
10509;SDS011;5303;53.266;10.410;2023-05-01T06:35:47;7.03;;;3.80;;
10509;SDS011;5303;53.266;10.410;2023-05-01T06:38:13;7.30;;;3.63;;
10509;SDS011;5303;53.266;10.410;2023-05-01T06:40:38;6.93;;;3.70;;
10509;SDS011;5303;53.266;10.410;2023-05-01T06:43:04;9.10;;;4.00;;
10509;SDS011;5303;53.266;10.410;2023-05-01T06:45:29;7.07;;;3.57;;
10509;SDS011;5303;53.266;10.410;2023-05-01T06:47:55;7.00;;;4.17;;
10509;SDS011;5303;53.266;10.410;2023-05-01T06:50:20;6.90;;;3.93;;
10509;SDS011;5303;53.266;10.410;2023-05-01T06:52:45;6.27;;;4.03;;
10509;SDS011;5303;53.266;10.410;2023-05-01T06:55:11;7.87;;;3.80;;
10509;SDS011;5303;53.266;10.410;2023-05-01T06:57:36;6.80;;;3.77;;
10509;SDS011;5303;53.266;10.410;2023-05-01T07:00:02;5.13;;;3.57;;
10509;SDS011;5303;53.266;10.410;2023-05-01T07:02:27;6.97;;;3.80;;
10509;SDS011;5303;53.266;10.410;2023-05-01T07:04:53;8.50;;;4.23;;
10509;SDS011;5303;53.266;10.410;2023-05-01T07:07:18;5.33;;;3.70;;
10509;SDS011;5303;53.266;10.410;2023-05-01T07:09:43;7.07;;;3.47;;
10509;SDS011;5303;53.266;10.410;2023-05-01T07:12:09;5.87;;;3.70;;
10509;SDS011;5303;53.266;10.410;2023-05-01T07:14:34;6.83;;;3.57;;
10509;SDS011;5303;53.266;10.410;2023-05-01T07:17:00;5.73;;;3.97;;
10509;SDS011;5303;53.266;10.410;2023-05-01T07:19:26;5.77;;;3.50;;
10509;SDS011;5303;53.266;10.410;2023-05-01T07:21:51;5.77;;;3.60;;
10509;SDS011;5303;53.266;10.410;2023-05-01T07:24:16;6.47;;;3.33;;
10509;SDS011;5303;53.266;10.410;2023-05-01T07:26:42;6.37;;;3.70;;
10509;SDS011;5303;53.266;10.410;2023-05-01T07:29:07;7.87;;;3.50;;
10509;SDS011;5303;53.266;10.410;2023-05-01T07:31:32;6.43;;;4.00;;
10509;SDS011;5303;53.266;10.410;2023-05-01T07:33:57;4.93;;;3.57;;
10509;SDS011;5303;53.266;10.410;2023-05-01T07:36:23;4.87;;;3.37;;
10509;SDS011;5303;53.266;10.410;2023-05-01T07:38:48;6.83;;;3.60;;
10509;SDS011;5303;53.266;10.410;2023-05-01T07:41:13;5.17;;;3.30;;
10509;SDS011;5303;53.266;10.410;2023-05-01T07:43:39;5.37;;;3.60;;
10509;SDS011;5303;53.266;10.410;2023-05-01T07:46:04;7.23;;;4.00;;
10509;SDS011;5303;53.266;10.410;2023-05-01T07:48:30;6.53;;;3.77;;
10509;SDS011;5303;53.266;10.410;2023-05-01T07:51:00;6.90;;;3.60;;
10509;SDS011;5303;53.266;10.410;2023-05-01T07:53:26;4.67;;;3.40;;
10509;SDS011;5303;53.266;10.410;2023-05-01T07:55:51;4.70;;;3.40;;
10509;SDS011;5303;53.266;10.410;2023-05-01T07:58:17;5.97;;;3.80;;
10509;SDS011;5303;53.266;10.410;2023-05-01T08:00:43;5.97;;;3.43;;
10509;SDS011;5303;53.266;10.410;2023-05-01T08:03:11;6.63;;;3.30;;
10509;SDS011;5303;53.266;10.410;2023-05-01T08:05:40;7.13;;;3.80;;
10509;SDS011;5303;53.266;10.410;2023-05-01T08:08:05;4.67;;;3.17;;
10509;SDS011;5303;53.266;10.410;2023-05-01T08:10:31;5.70;;;3.40;;
10509;SDS011;5303;53.266;10.410;2023-05-01T08:12:56;3.90;;;3.03;;
10509;SDS011;5303;53.266;10.410;2023-05-01T08:15:21;5.07;;;3.30;;
10509;SDS011;5303;53.266;10.410;2023-05-01T08:17:47;4.87;;;3.00;;
10509;SDS011;5303;53.266;10.410;2023-05-01T08:20:13;5.10;;;3.50;;
10509;SDS011;5303;53.266;10.410;2023-05-01T08:22:38;4.83;;;3.17;;
10509;SDS011;5303;53.266;10.410;2023-05-01T08:25:04;6.73;;;2.90;;
10509;SDS011;5303;53.266;10.410;2023-05-01T08:27:29;4.50;;;2.90;;
10509;SDS011;5303;53.266;10.410;2023-05-01T08:29:55;6.03;;;3.10;;
10509;SDS011;5303;53.266;10.410;2023-05-01T08:32:20;5.10;;;3.40;;
10509;SDS011;5303;53.266;10.410;2023-05-01T08:34:45;8.20;;;3.13;;
10509;SDS011;5303;53.266;10.410;2023-05-01T08:37:11;5.43;;;2.97;;
10509;SDS011;5303;53.266;10.410;2023-05-01T08:39:36;5.87;;;3.00;;
10509;SDS011;5303;53.266;10.410;2023-05-01T08:42:02;4.97;;;2.73;;
10509;SDS011;5303;53.266;10.410;2023-05-01T08:44:27;6.00;;;2.80;;
10509;SDS011;5303;53.266;10.410;2023-05-01T08:49:30;7.20;;;3.00;;
10509;SDS011;5303;53.266;10.410;2023-05-01T08:51:57;6.37;;;3.07;;
10509;SDS011;5303;53.266;10.410;2023-05-01T08:54:26;5.53;;;3.10;;
10509;SDS011;5303;53.266;10.410;2023-05-01T08:56:53;5.30;;;2.80;;
10509;SDS011;5303;53.266;10.410;2023-05-01T08:59:19;5.87;;;2.90;;
10509;SDS011;5303;53.266;10.410;2023-05-01T09:01:47;5.03;;;2.83;;
10509;SDS011;5303;53.266;10.410;2023-05-01T09:04:15;6.10;;;2.83;;
10509;SDS011;5303;53.266;10.410;2023-05-01T09:06:41;3.53;;;2.57;;
10509;SDS011;5303;53.266;10.410;2023-05-01T09:09:08;4.10;;;2.80;;
10509;SDS011;5303;53.266;10.410;2023-05-01T09:11:34;4.37;;;2.90;;
10509;SDS011;5303;53.266;10.410;2023-05-01T09:14:01;4.57;;;2.90;;
10509;SDS011;5303;53.266;10.410;2023-05-01T09:16:29;5.47;;;2.77;;
10509;SDS011;5303;53.266;10.410;2023-05-01T09:18:55;6.40;;;3.10;;
10509;SDS011;5303;53.266;10.410;2023-05-01T09:21:23;6.67;;;2.90;;
10509;SDS011;5303;53.266;10.410;2023-05-01T09:23:49;4.37;;;2.70;;
10509;SDS011;5303;53.266;10.410;2023-05-01T09:26:15;5.93;;;3.23;;
10509;SDS011;5303;53.266;10.410;2023-05-01T09:28:44;3.90;;;2.80;;
10509;SDS011;5303;53.266;10.410;2023-05-01T09:31:26;5.90;;;3.00;;
10509;SDS011;5303;53.266;10.410;2023-05-01T09:33:56;5.30;;;3.20;;
10509;SDS011;5303;53.266;10.410;2023-05-01T09:36:30;5.00;;;3.13;;
10509;SDS011;5303;53.266;10.410;2023-05-01T09:38:57;5.53;;;3.53;;
10509;SDS011;5303;53.266;10.410;2023-05-01T09:41:24;4.57;;;3.07;;
10509;SDS011;5303;53.266;10.410;2023-05-01T09:43:50;4.93;;;3.40;;
10509;SDS011;5303;53.266;10.410;2023-05-01T09:46:17;6.43;;;3.27;;
10509;SDS011;5303;53.266;10.410;2023-05-01T09:49:03;6.03;;;3.50;;
10509;SDS011;5303;53.266;10.410;2023-05-01T09:51:29;4.77;;;3.00;;
10509;SDS011;5303;53.266;10.410;2023-05-01T09:53:59;6.50;;;3.63;;
10509;SDS011;5303;53.266;10.410;2023-05-01T09:56:26;4.60;;;3.63;;
10509;SDS011;5303;53.266;10.410;2023-05-01T09:58:53;6.37;;;3.33;;
10509;SDS011;5303;53.266;10.410;2023-05-01T10:01:38;5.60;;;3.50;;
10509;SDS011;5303;53.266;10.410;2023-05-01T10:04:05;5.97;;;3.30;;
10509;SDS011;5303;53.266;10.410;2023-05-01T10:06:30;7.27;;;3.43;;
10509;SDS011;5303;53.266;10.410;2023-05-01T10:08:56;4.97;;;3.57;;
10509;SDS011;5303;53.266;10.410;2023-05-01T10:11:22;6.27;;;3.77;;
10509;SDS011;5303;53.266;10.410;2023-05-01T10:14:03;5.93;;;3.60;;
10509;SDS011;5303;53.266;10.410;2023-05-01T10:16:33;4.43;;;3.40;;
10509;SDS011;5303;53.266;10.410;2023-05-01T10:19:00;6.20;;;3.83;;
10509;SDS011;5303;53.266;10.410;2023-05-01T10:21:27;6.87;;;3.57;;
10509;SDS011;5303;53.266;10.410;2023-05-01T10:23:53;5.73;;;3.40;;
10509;SDS011;5303;53.266;10.410;2023-05-01T10:26:19;5.27;;;3.67;;
10509;SDS011;5303;53.266;10.410;2023-05-01T10:28:46;5.30;;;3.43;;
10509;SDS011;5303;53.266;10.410;2023-05-01T10:31:13;4.57;;;3.80;;
10509;SDS011;5303;53.266;10.410;2023-05-01T10:33:39;6.07;;;3.50;;
10509;SDS011;5303;53.266;10.410;2023-05-01T10:36:05;5.33;;;3.53;;
10509;SDS011;5303;53.266;10.410;2023-05-01T10:38:35;5.27;;;4.30;;
10509;SDS011;5303;53.266;10.410;2023-05-01T10:41:02;7.57;;;3.97;;
10509;SDS011;5303;53.266;10.410;2023-05-01T10:43:28;5.73;;;3.93;;
10509;SDS011;5303;53.266;10.410;2023-05-01T10:46:25;5.20;;;3.47;;
10509;SDS011;5303;53.266;10.410;2023-05-01T10:48:51;7.90;;;4.03;;
10509;SDS011;5303;53.266;10.410;2023-05-01T10:51:19;4.60;;;3.10;;
10509;SDS011;5303;53.266;10.410;2023-05-01T10:53:46;3.60;;;3.07;;
10509;SDS011;5303;53.266;10.410;2023-05-01T10:56:56;8.60;;;3.77;;
10509;SDS011;5303;53.266;10.410;2023-05-01T10:59:02;6.20;;;3.30;;
10509;SDS011;5303;53.266;10.410;2023-05-01T11:09:39;9.40;;;3.50;;
10509;SDS011;5303;53.266;10.410;2023-05-01T11:12:08;5.50;;;3.37;;
10509;SDS011;5303;53.266;10.410;2023-05-01T11:20:03;6.47;;;3.77;;
10509;SDS011;5303;53.266;10.410;2023-05-01T11:22:30;4.80;;;3.27;;
10509;SDS011;5303;53.266;10.410;2023-05-01T11:25:02;4.80;;;3.27;;
10509;SDS011;5303;53.266;10.410;2023-05-01T11:27:31;5.33;;;2.80;;
10509;SDS011;5303;53.266;10.410;2023-05-01T11:29:59;5.43;;;3.17;;
10509;SDS011;5303;53.266;10.410;2023-05-01T11:32:28;3.70;;;3.00;;
10509;SDS011;5303;53.266;10.410;2023-05-01T11:34:54;6.80;;;3.50;;
10509;SDS011;5303;53.266;10.410;2023-05-01T11:37:30;4.30;;;3.50;;
10509;SDS011;5303;53.266;10.410;2023-05-01T11:40:03;5.63;;;3.37;;
10509;SDS011;5303;53.266;10.410;2023-05-01T11:42:29;5.07;;;3.33;;
10509;SDS011;5303;53.266;10.410;2023-05-01T11:45:04;5.00;;;3.40;;
10509;SDS011;5303;53.266;10.410;2023-05-01T11:47:34;4.83;;;3.17;;
10509;SDS011;5303;53.266;10.410;2023-05-01T11:50:00;5.93;;;3.20;;
10509;SDS011;5303;53.266;10.410;2023-05-01T11:52:26;4.73;;;3.30;;
10509;SDS011;5303;53.266;10.410;2023-05-01T11:54:52;8.07;;;3.33;;
10509;SDS011;5303;53.266;10.410;2023-05-01T11:57:18;5.67;;;3.40;;
10509;SDS011;5303;53.266;10.410;2023-05-01T11:59:45;4.77;;;3.43;;
10509;SDS011;5303;53.266;10.410;2023-05-01T12:02:18;6.47;;;3.43;;
10509;SDS011;5303;53.266;10.410;2023-05-01T12:04:44;5.03;;;3.33;;
10509;SDS011;5303;53.266;10.410;2023-05-01T12:07:18;4.13;;;2.90;;
10509;SDS011;5303;53.266;10.410;2023-05-01T12:09:44;6.63;;;3.30;;
10509;SDS011;5303;53.266;10.410;2023-05-01T12:12:10;6.93;;;3.57;;
10509;SDS011;5303;53.266;10.410;2023-05-01T12:14:35;6.50;;;3.47;;
10509;SDS011;5303;53.266;10.410;2023-05-01T12:17:01;7.17;;;3.90;;
10509;SDS011;5303;53.266;10.410;2023-05-01T12:19:28;7.53;;;3.50;;
10509;SDS011;5303;53.266;10.410;2023-05-01T12:22:06;5.90;;;3.10;;
10509;SDS011;5303;53.266;10.410;2023-05-01T12:24:32;6.50;;;3.37;;
10509;SDS011;5303;53.266;10.410;2023-05-01T12:27:00;5.83;;;3.13;;
10509;SDS011;5303;53.266;10.410;2023-05-01T12:29:38;5.23;;;3.50;;
10509;SDS011;5303;53.266;10.410;2023-05-01T12:32:05;4.53;;;3.33;;
10509;SDS011;5303;53.266;10.410;2023-05-01T12:34:31;5.30;;;3.10;;
10509;SDS011;5303;53.266;10.410;2023-05-01T12:36:58;5.63;;;3.50;;
10509;SDS011;5303;53.266;10.410;2023-05-01T12:39:23;6.97;;;3.57;;
10509;SDS011;5303;53.266;10.410;2023-05-01T12:41:50;5.50;;;3.00;;
10509;SDS011;5303;53.266;10.410;2023-05-01T12:46:43;5.93;;;3.40;;
10509;SDS011;5303;53.266;10.410;2023-05-01T12:49:17;5.77;;;3.10;;
10509;SDS011;5303;53.266;10.410;2023-05-01T12:51:45;3.57;;;2.90;;
10509;SDS011;5303;53.266;10.410;2023-05-01T12:54:11;5.38;;;3.30;;
10509;SDS011;5303;53.266;10.410;2023-05-01T12:56:43;5.53;;;3.50;;
10509;SDS011;5303;53.266;10.410;2023-05-01T12:59:18;3.93;;;3.00;;
10509;SDS011;5303;53.266;10.410;2023-05-01T13:01:55;5.90;;;3.10;;
10509;SDS011;5303;53.266;10.410;2023-05-01T13:04:24;6.30;;;3.55;;
10509;SDS011;5303;53.266;10.410;2023-05-01T13:06:54;3.93;;;2.90;;
10509;SDS011;5303;53.266;10.410;2023-05-01T13:09:21;5.47;;;3.00;;
10509;SDS011;5303;53.266;10.410;2023-05-01T13:11:56;6.30;;;3.10;;
10509;SDS011;5303;53.266;10.410;2023-05-01T13:14:23;4.90;;;3.23;;
10509;SDS011;5303;53.266;10.410;2023-05-01T13:16:49;5.67;;;3.30;;
10509;SDS011;5303;53.266;10.410;2023-05-01T13:19:25;4.93;;;2.97;;
10509;SDS011;5303;53.266;10.410;2023-05-01T13:21:54;7.27;;;3.17;;
10509;SDS011;5303;53.266;10.410;2023-05-01T13:24:21;3.33;;;2.70;;
10509;SDS011;5303;53.266;10.410;2023-05-01T13:26:47;3.07;;;2.77;;
10509;SDS011;5303;53.266;10.410;2023-05-01T13:29:19;4.27;;;3.10;;
10509;SDS011;5303;53.266;10.410;2023-05-01T13:31:47;4.40;;;3.30;;
10509;SDS011;5303;53.266;10.410;2023-05-01T13:34:13;3.93;;;3.37;;
10509;SDS011;5303;53.266;10.410;2023-05-01T13:36:45;5.37;;;3.17;;
10509;SDS011;5303;53.266;10.410;2023-05-01T13:39:10;4.77;;;3.33;;
10509;SDS011;5303;53.266;10.410;2023-05-01T13:41:44;5.43;;;3.70;;
10509;SDS011;5303;53.266;10.410;2023-05-01T13:44:09;6.77;;;4.00;;
10509;SDS011;5303;53.266;10.410;2023-05-01T13:46:35;4.97;;;3.60;;
10509;SDS011;5303;53.266;10.410;2023-05-01T13:49:03;7.97;;;5.00;;
10509;SDS011;5303;53.266;10.410;2023-05-01T13:51:32;5.40;;;3.70;;
10509;SDS011;5303;53.266;10.410;2023-05-01T13:54:00;5.13;;;3.20;;
10509;SDS011;5303;53.266;10.410;2023-05-01T13:56:27;5.07;;;3.23;;
10509;SDS011;5303;53.266;10.410;2023-05-01T13:58:52;5.90;;;3.47;;
10509;SDS011;5303;53.266;10.410;2023-05-01T14:01:18;4.63;;;3.40;;
10509;SDS011;5303;53.266;10.410;2023-05-01T14:03:47;4.90;;;3.43;;
10509;SDS011;5303;53.266;10.410;2023-05-01T14:06:16;5.47;;;3.60;;
10509;SDS011;5303;53.266;10.410;2023-05-01T14:08:43;4.37;;;3.47;;
10509;SDS011;5303;53.266;10.410;2023-05-01T14:11:10;4.10;;;3.57;;
10509;SDS011;5303;53.266;10.410;2023-05-01T14:13:37;4.00;;;3.17;;
10509;SDS011;5303;53.266;10.410;2023-05-01T14:16:07;4.10;;;3.57;;
10509;SDS011;5303;53.266;10.410;2023-05-01T14:18:43;3.97;;;3.27;;
10509;SDS011;5303;53.266;10.410;2023-05-01T14:21:10;3.40;;;3.10;;
10509;SDS011;5303;53.266;10.410;2023-05-01T14:23:36;3.90;;;2.27;;
10509;SDS011;5303;53.266;10.410;2023-05-01T14:26:03;3.33;;;2.50;;
10509;SDS011;5303;53.266;10.410;2023-05-01T14:28:32;2.63;;;2.20;;
10509;SDS011;5303;53.266;10.410;2023-05-01T14:30:57;2.17;;;1.67;;
10509;SDS011;5303;53.266;10.410;2023-05-01T14:33:22;4.23;;;2.07;;
10509;SDS011;5303;53.266;10.410;2023-05-01T14:35:50;3.40;;;1.97;;
10509;SDS011;5303;53.266;10.410;2023-05-01T14:38:17;3.30;;;2.00;;
10509;SDS011;5303;53.266;10.410;2023-05-01T14:40:43;2.40;;;1.77;;
10509;SDS011;5303;53.266;10.410;2023-05-01T14:43:11;3.10;;;1.70;;
10509;SDS011;5303;53.266;10.410;2023-05-01T14:45:41;2.57;;;1.87;;
10509;SDS011;5303;53.266;10.410;2023-05-01T14:48:07;2.13;;;1.90;;
10509;SDS011;5303;53.266;10.410;2023-05-01T14:50:34;3.90;;;2.20;;
10509;SDS011;5303;53.266;10.410;2023-05-01T14:53:00;2.33;;;2.00;;
10509;SDS011;5303;53.266;10.410;2023-05-01T14:55:28;4.10;;;2.07;;
10509;SDS011;5303;53.266;10.410;2023-05-01T14:57:56;2.70;;;1.73;;
10509;SDS011;5303;53.266;10.410;2023-05-01T15:00:24;1.97;;;1.73;;
10509;SDS011;5303;53.266;10.410;2023-05-01T15:02:50;2.77;;;1.87;;
10509;SDS011;5303;53.266;10.410;2023-05-01T15:05:16;1.97;;;1.50;;
10509;SDS011;5303;53.266;10.410;2023-05-01T15:07:41;3.40;;;1.97;;
10509;SDS011;5303;53.266;10.410;2023-05-01T15:10:07;4.03;;;1.70;;
10509;SDS011;5303;53.266;10.410;2023-05-01T15:12:33;4.57;;;1.63;;
10509;SDS011;5303;53.266;10.410;2023-05-01T15:14:58;1.70;;;1.50;;
10509;SDS011;5303;53.266;10.410;2023-05-01T15:17:23;2.17;;;1.50;;